Terminal Aerodrome Forecast
Issued by NWS

Home | Current Version | Previous Version | Text Only | Print | Product List | Glossary On
Versions: 1 2 3 4 5 6 7 8 9 10 11 12 13 14 15 16 17 18 19
703
FTUS45 KFGZ 291740
TAFPRC
TAF
KPRC 291740Z 2918/3018 VRB06KT P6SM SHRA BKN035 OVC080
     FM291900 19010KT P6SM VCSH BKN040 OVC060
     FM300200 VRB05KT P6SM SCT045 BKN060=

USA.gov is the U.S. government's official web portal to all federal, state and local government web resources and services.